Time;durP1;ratioP1;P1;durP2;ratioP2;P2;SDS_P1;SDS_P2;PMS_P1;PMS_P2;Temp;Humidity;BMP_temperature;BMP_pressure;BME280_temperature;BME280_humidity;BME280_pressure;Samples;Min_cycle;Max_cycle;Signal;HPM_P1;HPM_P2
2021/05/01 00:01:36;;;;;;;37.10;33.05;;;;;;;8.73;63.50;100266.44;128571;1098;22345;-75
2021/05/01 00:04:05;;;;;;;39.55;32.10;;;;;;;8.72;63.49;100256.88;128234;1098;22333;-76
2021/05/01 00:06:33;;;;;;;39.13;33.75;;;;;;;8.71;63.60;100261.31;128605;1097;22436;-76
2021/05/01 00:09:02;;;;;;;40.70;32.45;;;;;;;8.69;63.43;100268.53;128264;1095;22345;-76
2021/05/01 00:11:34;;;;;;;35.83;31.93;;;;;;;8.70;63.73;100266.75;128300;1095;22778;-76
2021/05/01 00:14:03;;;;;;;38.58;33.38;;;;;;;8.70;63.84;100261.48;128340;1099;22411;-76
2021/05/01 00:16:32;;;;;;;38.78;32.33;;;;;;;8.71;63.73;100258.68;128580;1096;24477;-76
2021/05/01 00:19:02;;;;;;;39.18;33.65;;;;;;;8.72;63.82;100254.23;128300;1098;22342;-76
2021/05/01 00:21:30;;;;;;;35.58;31.78;;;;;;;8.69;63.53;100251.91;128564;1095;24973;-75
2021/05/01 00:23:59;;;;;;;41.30;35.15;;;;;;;8.66;63.63;100244.33;128606;1098;22329;-76
2021/05/01 00:26:27;;;;;;;39.33;35.17;;;;;;;8.63;63.61;100245.49;128275;1099;22323;-76
2021/05/01 00:28:56;;;;;;;39.50;35.23;;;;;;;8.57;63.55;100240.85;128615;1095;24463;-76
2021/05/01 00:31:27;;;;;;;38.80;34.58;;;;;;;8.55;63.74;100237.54;128596;1098;22350;-76
2021/05/01 00:33:56;;;;;;;37.60;33.75;;;;;;;8.55;64.04;100241.98;128564;1098;22330;-75
2021/05/01 00:36:24;;;;;;;37.13;33.10;;;;;;;8.56;64.25;100233.91;128594;1098;22320;-76
2021/05/01 00:38:54;;;;;;;33.65;30.03;;;;;;;8.54;64.13;100235.08;128294;1098;22357;-76
2021/05/01 00:41:24;;;;;;;35.30;31.63;;;;;;;8.49;64.36;100253.95;128638;1095;22396;-75
2021/05/01 00:43:53;;;;;;;36.50;32.58;;;;;;;8.48;64.56;100254.95;128640;1098;22328;-75
2021/05/01 00:46:21;;;;;;;35.28;31.68;;;;;;;8.48;64.79;100245.23;128617;1098;22342;-75
2021/05/01 00:48:50;;;;;;;33.20;30.00;;;;;;;8.46;64.81;100233.20;128560;1098;22335;-76
2021/05/01 00:51:19;;;;;;;36.75;33.13;;;;;;;8.40;64.62;100244.39;128560;1098;22333;-75
2021/05/01 00:53:48;;;;;;;36.55;32.58;;;;;;;8.35;64.83;100249.25;128632;1095;24928;-76
2021/05/01 00:56:17;;;;;;;36.20;32.33;;;;;;;8.33;64.93;100252.05;128608;1095;22358;-76
2021/05/01 00:58:46;;;;;;;36.45;32.00;;;;;;;8.31;65.40;100259.27;128344;1098;22345;-76
2021/05/01 01:01:18;;;;;;;37.00;32.55;;;;;;;8.33;65.35;100259.09;128556;1098;22885;-75
2021/05/01 01:03:48;;;;;;;35.53;32.20;;;;;;;8.33;65.21;100265.21;128603;1098;22538;-76
2021/05/01 01:06:17;;;;;;;36.70;32.70;;;;;;;8.29;65.55;100258.58;128545;1098;22330;-76
2021/05/01 01:08:46;;;;;;;39.20;35.35;;;;;;;8.29;65.78;100245.42;128544;1098;22319;-76
2021/05/01 01:11:15;;;;;;;40.18;36.18;;;;;;;8.30;66.02;100248.88;128252;1095;24482;-76
2021/05/01 01:14:06;;;;;;;44.40;39.83;;;;;;;8.28;66.18;100245.59;128283;1095;24131;-77
2021/05/01 01:16:35;;;;;;;42.85;38.38;;;;;;;8.25;66.32;100249.35;128265;1095;24065;-77
2021/05/01 01:19:05;;;;;;;46.20;41.63;;;;;;;8.26;66.96;100258.89;128274;1098;22343;-78
2021/05/01 01:21:49;;;;;;;47.88;43.25;;;;;;;8.27;67.30;100257.93;128266;1098;22341;-77
2021/05/01 01:24:19;;;;;;;46.80;42.40;;;;;;;8.25;67.51;100246.72;128590;1098;22333;-76
2021/05/01 01:26:47;;;;;;;50.30;45.55;;;;;;;8.19;67.15;100236.81;128624;1098;23834;-77
2021/05/01 01:29:16;;;;;;;48.83;43.90;;;;;;;8.14;67.47;100239.92;128261;1098;22351;-76
2021/05/01 01:31:44;;;;;;;48.88;44.15;;;;;;;8.11;67.76;100228.88;128234;1097;22345;-76
2021/05/01 01:34:13;;;;;;;47.78;43.18;;;;;;;8.07;68.07;100228.36;128559;1098;22344;-76
2021/05/01 01:36:42;;;;;;;44.43;39.40;;;;;;;8.00;67.88;100230.78;128261;1100;22349;-77
2021/05/01 01:39:10;;;;;;;46.13;40.58;;;;;;;7.95;68.22;100230.41;128258;1098;22433;-75
2021/05/01 01:41:39;;;;;;;47.83;43.07;;;;;;;7.88;68.65;100239.89;128289;1096;22348;-78
2021/05/01 01:44:07;;;;;;;48.33;43.38;;;;;;;7.91;68.95;100254.55;128555;1098;22327;-76
2021/05/01 01:46:36;;;;;;;45.80;40.93;;;;;;;7.92;69.09;100261.45;128211;1096;22328;-76
2021/05/01 01:49:05;;;;;;;43.58;39.23;;;;;;;7.93;69.15;100263.95;128261;1096;22383;-76
2021/05/01 01:51:33;;;;;;;45.68;41.15;;;;;;;7.96;69.58;100271.53;128567;1098;22367;-76
2021/05/01 01:54:02;;;;;;;44.00;39.60;;;;;;;8.00;69.50;100280.77;128580;1098;23291;-76
2021/05/01 01:56:30;;;;;;;49.28;44.50;;;;;;;8.02;69.60;100285.86;128260;1096;22443;-77
2021/05/01 01:58:59;;;;;;;48.40;43.50;;;;;;;8.05;69.64;100263.69;128263;1100;23192;-77
2021/05/01 02:01:27;;;;;;;50.88;46.05;;;;;;;8.07;69.70;100261.74;128585;1098;22450;-77
2021/05/01 02:03:57;;;;;;;48.60;43.65;;;;;;;8.08;69.77;100256.31;128362;1099;22376;-76
2021/05/01 02:06:27;;;;;;;45.95;41.50;;;;;;;8.08;69.91;100268.65;128237;1096;22331;-75
2021/05/01 02:08:55;;;;;;;44.75;40.20;;;;;;;8.06;69.91;100266.16;128203;1098;22354;-76
2021/05/01 02:11:24;;;;;;;42.95;38.78;;;;;;;8.07;70.16;100259.11;128581;1097;22334;-76
2021/05/01 02:13:53;;;;;;;44.35;39.65;;;;;;;8.07;70.15;100253.85;128257;1097;22349;-76
2021/05/01 02:16:21;;;;;;;47.40;42.58;;;;;;;8.07;70.33;100257.30;128282;1099;22331;-77
2021/05/01 02:18:50;;;;;;;45.97;41.57;;;;;;;8.09;70.29;100251.88;128284;1096;22436;-78
2021/05/01 02:21:18;;;;;;;46.10;41.60;;;;;;;8.11;70.50;100252.55;128293;1098;23367;-76
2021/05/01 02:23:47;;;;;;;47.75;42.70;;;;;;;8.10;70.66;100256.17;128265;1100;22333;-76
2021/05/01 02:26:16;;;;;;;47.05;42.03;;;;;;;8.10;70.79;100253.55;128561;1098;22334;-77
2021/05/01 02:28:45;;;;;;;46.23;41.38;;;;;;;8.09;70.83;100252.69;128621;1098;22359;-76
2021/05/01 02:31:13;;;;;;;46.48;41.55;;;;;;;8.09;70.86;100251.88;128623;1098;22345;-77
2021/05/01 02:33:42;;;;;;;51.83;46.63;;;;;;;8.09;71.07;100252.69;128578;1098;22341;-77
2021/05/01 02:36:11;;;;;;;48.55;43.73;;;;;;;8.09;71.08;100250.06;128547;1098;22317;-77
2021/05/01 02:38:40;;;;;;;50.05;44.90;;;;;;;8.08;71.17;100250.23;128236;1098;22342;-77
2021/05/01 02:41:09;;;;;;;49.93;44.70;;;;;;;8.07;71.08;100248.59;128591;1094;23272;-77
2021/05/01 02:43:37;;;;;;;47.90;43.13;;;;;;;8.07;71.50;100244.15;128561;1095;23271;-77
2021/05/01 02:46:06;;;;;;;46.10;41.43;;;;;;;8.07;71.50;100235.44;128582;1098;23841;-76
2021/05/01 02:48:35;;;;;;;45.85;41.20;;;;;;;8.05;71.60;100232.13;128590;1095;24303;-76
2021/05/01 02:51:04;;;;;;;47.50;42.88;;;;;;;8.04;71.81;100223.41;128619;1098;22357;-77
2021/05/01 02:53:32;;;;;;;46.00;41.30;;;;;;;8.01;71.55;100221.08;128254;1096;22324;-77
2021/05/01 02:56:01;;;;;;;45.80;41.10;;;;;;;7.98;71.91;100226.65;128541;1097;24464;-77
2021/05/01 02:58:30;;;;;;;46.48;39.65;;;;;;;7.95;71.95;100213.80;128598;1098;22342;-77
2021/05/01 03:00:58;;;;;;;43.95;39.85;;;;;;;7.94;72.32;100212.16;128570;1095;24486;-76
2021/05/01 03:03:27;;;;;;;43.35;38.75;;;;;;;7.93;72.23;100218.38;128528;1095;23914;-75
2021/05/01 03:05:56;;;;;;;44.03;39.33;;;;;;;7.93;72.46;100216.60;128566;1095;24287;-77
2021/05/01 03:08:24;;;;;;;44.35;39.90;;;;;;;7.94;72.62;100206.91;128571;1098;22324;-77
2021/05/01 03:10:53;;;;;;;40.33;36.30;;;;;;;7.92;72.44;100200.95;128275;1097;22342;-77
2021/05/01 03:13:21;;;;;;;40.73;36.80;;;;;;;7.85;72.40;100192.86;128288;1098;22325;-80
2021/05/01 03:15:50;;;;;;;39.53;35.63;;;;;;;7.77;72.68;100198.08;128651;1098;22344;-81
2021/05/01 03:18:19;;;;;;;40.00;35.98;;;;;;;7.73;72.80;100192.30;128338;1098;22324;-77
2021/05/01 03:20:49;;;;;;;38.90;34.88;;;;;;;7.71;73.19;100207.39;128160;1098;22341;-77
2021/05/01 03:23:19;;;;;;;39.40;35.60;;;;;;;7.69;73.08;100197.99;128131;1098;22414;-77
2021/05/01 03:25:48;;;;;;;39.10;35.38;;;;;;;7.63;73.31;100193.34;128190;1098;22446;-76
2021/05/01 03:28:17;;;;;;;42.60;38.38;;;;;;;7.60;73.44;100194.50;128161;1101;22330;-76
2021/05/01 03:30:46;;;;;;;42.63;38.40;;;;;;;7.57;73.74;100193.98;128140;1100;22422;-77
2021/05/01 03:33:15;;;;;;;40.60;36.50;;;;;;;7.53;73.63;100204.80;128177;1098;24472;-77
2021/05/01 03:35:44;;;;;;;41.38;37.38;;;;;;;7.51;73.89;100198.03;128308;1098;24316;-76
2021/05/01 03:38:13;;;;;;;44.78;40.40;;;;;;;7.52;74.21;100200.48;128257;1098;22343;-76
2021/05/01 03:40:41;;;;;;;47.65;42.90;;;;;;;7.49;74.17;100205.23;128582;1095;22330;-76
2021/05/01 03:43:10;;;;;;;49.98;45.23;;;;;;;7.45;74.31;100199.45;128558;1098;22362;-76
2021/05/01 03:45:39;;;;;;;51.85;47.10;;;;;;;7.46;74.60;100208.16;128279;1098;22329;-76
2021/05/01 03:48:08;;;;;;;55.23;49.58;;;;;;;7.44;74.59;100213.58;128602;1098;22345;-77
2021/05/01 03:50:37;;;;;;;57.05;51.33;;;;;;;7.42;74.71;100212.06;128600;1095;22327;-76
2021/05/01 03:53:05;;;;;;;56.85;51.45;;;;;;;7.40;74.87;100219.30;128284;1097;24493;-76
2021/05/01 03:55:34;;;;;;;56.13;50.78;;;;;;;7.40;75.14;100206.98;128259;1097;24460;-75
2021/05/01 03:58:03;;;;;;;54.08;48.90;;;;;;;7.42;75.26;100207.63;128250;1098;22329;-76
2021/05/01 04:00:32;;;;;;;53.18;48.25;;;;;;;7.40;75.10;100206.16;128295;1098;22430;-76
2021/05/01 04:03:00;;;;;;;52.75;47.68;;;;;;;7.38;75.27;100216.80;128574;1098;22329;-78
2021/05/01 04:05:29;;;;;;;51.05;46.35;;;;;;;7.33;75.46;100221.70;128593;1098;22379;-78
2021/05/01 04:07:58;;;;;;;53.35;48.05;;;;;;;7.31;75.58;100221.83;128578;1098;22341;-78
2021/05/01 04:10:26;;;;;;;50.48;45.78;;;;;;;7.30;75.48;100232.51;128553;1098;22344;-77
2021/05/01 04:12:55;;;;;;;52.35;47.25;;;;;;;7.28;75.85;100227.38;128157;1101;22334;-78
2021/05/01 04:15:25;;;;;;;55.53;50.13;;;;;;;7.30;76.00;100225.45;128191;1101;22443;-79
2021/05/01 04:17:53;;;;;;;58.05;52.38;;;;;;;7.33;76.24;100226.95;128224;1101;23235;-78
2021/05/01 04:20:22;;;;;;;59.95;54.05;;;;;;;7.37;76.36;100237.98;128202;1101;22357;-78
2021/05/01 04:22:52;;;;;;;58.53;52.73;;;;;;;7.36;76.55;100229.25;128211;1098;22336;-79
2021/05/01 04:25:21;;;;;;;61.63;55.50;;;;;;;7.38;76.63;100232.57;128178;1101;22644;-79
2021/05/01 04:27:50;;;;;;;54.20;48.37;;;;;;;7.40;76.69;100235.89;128254;1098;22341;-79
2021/05/01 04:30:19;;;;;;;52.63;47.15;;;;;;;7.43;76.73;100235.59;128263;1100;22343;-77
2021/05/01 04:32:49;;;;;;;44.33;39.65;;;;;;;7.42;76.53;100236.55;128624;1097;22351;-78
2021/05/01 04:35:18;;;;;;;46.48;41.73;;;;;;;7.38;76.70;100237.00;128628;1098;22326;-78
2021/05/01 04:37:47;;;;;;;46.73;41.88;;;;;;;7.36;76.69;100229.25;128639;1095;22349;-78
2021/05/01 04:40:16;;;;;;;49.75;44.58;;;;;;;7.31;77.10;100237.59;128576;1095;24463;-77
2021/05/01 04:42:49;;;;;;;51.45;46.13;;;;;;;7.30;77.00;100235.13;128645;1098;22347;-78
2021/05/01 04:45:20;;;;;;;49.05;44.03;;;;;;;7.32;77.28;100241.05;128606;1095;22448;-78
2021/05/01 04:47:52;;;;;;;48.30;43.60;;;;;;;7.34;77.26;100238.28;128661;1098;22427;-78
2021/05/01 04:50:22;;;;;;;49.83;44.95;;;;;;;7.33;77.27;100240.09;128387;1098;22330;-79
2021/05/01 04:52:55;;;;;;;51.93;46.68;;;;;;;7.33;77.29;100240.09;128599;1095;22825;-79
2021/05/01 04:55:25;;;;;;;47.58;42.98;;;;;;;7.35;77.53;100245.19;128288;1098;22443;-78
2021/05/01 04:57:55;;;;;;;47.55;42.90;;;;;;;7.37;77.48;100254.58;128536;1095;22382;-77
2021/05/01 05:00:24;;;;;;;48.00;43.30;;;;;;;7.38;77.65;100250.97;128615;1095;24463;-79
2021/05/01 05:02:53;;;;;;;49.53;44.88;;;;;;;7.38;77.74;100264.11;128589;1095;22342;-78
2021/05/01 05:05:22;;;;;;;47.90;43.23;;;;;;;7.42;77.92;100264.63;128586;1098;22342;-78
2021/05/01 05:07:50;;;;;;;48.28;43.83;;;;;;;7.47;77.74;100263.22;128227;1095;22330;-78
2021/05/01 05:10:19;;;;;;;47.85;43.15;;;;;;;7.47;77.82;100262.39;128295;1096;22330;-78
2021/05/01 05:12:49;;;;;;;39.30;35.63;;;;;;;7.46;77.92;100256.31;128602;1098;22348;-77
2021/05/01 05:15:18;;;;;;;43.23;38.88;;;;;;;7.47;77.59;100263.22;128321;1098;22339;-77
2021/05/01 05:17:46;;;;;;;40.00;36.13;;;;;;;7.43;77.67;100253.98;128598;1096;22326;-77
2021/05/01 05:20:15;;;;;;;37.78;34.08;;;;;;;7.39;77.72;100249.98;128609;1098;22342;-78
2021/05/01 05:22:45;;;;;;;39.43;35.68;;;;;;;7.36;77.82;100252.91;128606;1098;22342;-78
2021/05/01 05:25:13;;;;;;;39.70;36.20;;;;;;;7.33;77.34;100242.72;128579;1095;22372;-78
2021/05/01 05:27:42;;;;;;;40.98;36.98;;;;;;;7.32;77.82;100251.55;128589;1098;22339;-78
2021/05/01 05:30:12;;;;;;;40.53;36.58;;;;;;;7.30;77.81;100253.53;128592;1098;22339;-78
2021/05/01 05:32:41;;;;;;;41.53;37.28;;;;;;;7.30;78.05;100256.98;128571;1098;23266;-79
2021/05/01 05:35:10;;;;;;;42.18;38.18;;;;;;;7.33;78.20;100261.11;128164;1101;22400;-79
2021/05/01 05:37:39;;;;;;;45.60;41.18;;;;;;;7.34;78.20;100257.50;128192;1101;22346;-79
2021/05/01 05:40:08;;;;;;;48.63;43.85;;;;;;;7.36;78.12;100260.79;128211;1098;22639;-78
2021/05/01 05:42:37;;;;;;;51.40;46.35;;;;;;;7.36;78.27;100271.30;128178;1098;24576;-80
2021/05/01 05:45:07;;;;;;;49.13;44.50;;;;;;;7.39;78.21;100276.27;128202;1098;22430;-80
2021/05/01 05:47:35;;;;;;;51.35;46.35;;;;;;;7.39;78.43;100273.63;128259;1101;22372;-80
2021/05/01 05:50:06;;;;;;;51.05;46.08;;;;;;;7.39;78.33;100276.27;128155;1101;22802;-79
2021/05/01 05:52:35;;;;;;;47.03;42.38;;;;;;;7.38;78.40;100274.62;128274;1098;24164;-78
2021/05/01 05:55:04;;;;;;;51.20;46.10;;;;;;;7.41;78.68;100274.32;128623;1095;24466;-79
2021/05/01 05:57:33;;;;;;;48.53;43.50;;;;;;;7.43;78.51;100269.75;128341;1097;22342;-79
2021/05/01 06:00:05;;;;;;;47.18;42.60;;;;;;;7.44;78.61;100273.20;128266;1096;24531;-79
2021/05/01 06:02:42;;;;;;;46.78;42.25;;;;;;;7.44;78.69;100268.77;128305;1098;22398;-79
2021/05/01 06:05:29;;;;;;;48.75;43.95;;;;;;;7.49;79.08;100281.45;128375;1095;24469;-79
2021/05/01 06:08:07;;;;;;;47.13;42.65;;;;;;;7.49;78.92;100291.97;128296;1099;22328;-80
2021/05/01 06:10:38;;;;;;;48.45;43.40;;;;;;;7.49;79.13;100295.41;128311;1098;22358;-77
2021/05/01 06:13:09;;;;;;;47.53;42.93;;;;;;;7.53;79.23;100302.05;128915;1098;22456;-77
2021/05/01 06:15:38;;;;;;;49.90;44.90;;;;;;;7.59;79.26;100302.41;128913;1095;22359;-77
2021/05/01 06:18:10;;;;;;;48.00;43.20;;;;;;;7.64;79.42;100303.63;128362;1095;25134;-77
2021/05/01 06:20:42;;;;;;;49.10;44.38;;;;;;;7.68;79.58;100286.57;128606;1099;23297;-76
2021/05/01 06:23:11;;;;;;;49.50;44.63;;;;;;;7.76;79.62;100262.14;128299;1098;24230;-78
2021/05/01 06:25:40;;;;;;;65.00;57.03;;;;;;;7.79;79.56;100269.73;128233;1098;24230;-75
2021/05/01 06:28:09;;;;;;;74.23;61.28;;;;;;;7.81;79.44;100259.08;128189;1098;22355;-77
2021/05/01 06:30:42;;;;;;;60.85;53.98;;;;;;;7.87;79.81;100266.36;128381;1101;22835;-75
2021/05/01 06:33:14;;;;;;;60.28;53.73;;;;;;;7.87;79.59;100266.36;128277;1101;24184;-76
2021/05/01 06:35:47;;;;;;;56.08;50.40;;;;;;;7.87;79.75;100269.81;128269;1098;22340;-75
2021/05/01 06:38:15;;;;;;;;;;;;;;;7.84;79.52;100259.59;128286;1101;22381;-78
2021/05/01 06:40:47;;;;;;;50.83;45.48;;;;;;;7.83;79.98;100257.95;128278;1101;21264;-73
2021/05/01 06:43:48;;;;;;;52.03;46.60;;;;;;;7.84;79.85;100254.33;128210;1098;22333;-75
2021/05/01 06:46:20;;;;;;;52.93;47.23;;;;;;;7.87;80.10;100248.77;127876;1101;23380;-73
2021/05/01 06:48:54;;;;;;;53.78;48.10;;;;;;;7.89;79.85;100256.50;127920;1104;22585;-77
2021/05/01 06:51:23;;;;;;;53.78;48.43;;;;;;;7.90;80.17;100248.47;127467;1105;22471;-78
2021/05/01 06:53:52;;;;;;;51.08;46.18;;;;;;;7.95;80.24;100235.67;127468;1107;22362;-79
2021/05/01 06:56:20;;;;;;;57.10;51.38;;;;;;;8.04;80.39;100241.83;127437;1104;24492;-77
2021/05/01 06:58:49;;;;;;;53.05;48.03;;;;;;;8.10;80.28;100237.76;127454;1107;23428;-77
2021/05/01 07:01:18;;;;;;;53.00;47.80;;;;;;;8.08;80.01;100240.53;127002;1108;22747;-77
2021/05/01 07:03:48;;;;;;;52.30;47.15;;;;;;;8.09;80.54;100252.69;127006;1105;23330;-78
2021/05/01 07:06:19;;;;;;;51.80;46.93;;;;;;;8.12;80.37;100246.30;127041;1108;24514;-76
2021/05/01 07:08:48;;;;;;;54.38;48.90;;;;;;;8.17;80.28;100262.47;126982;1110;22382;-77
2021/05/01 07:11:17;;;;;;;53.88;48.43;;;;;;;8.15;79.98;100261.79;127093;1107;22386;-77
2021/05/01 07:13:48;;;;;;;50.38;45.35;;;;;;;8.12;79.93;100262.91;127097;1108;23980;-78
2021/05/01 07:16:17;;;;;;;51.55;46.45;;;;;;;8.09;79.86;100267.66;127069;1109;22722;-78
2021/05/01 07:18:47;;;;;;;50.85;45.63;;;;;;;8.07;79.97;100267.00;127030;1106;22381;-78
2021/05/01 07:21:18;;;;;;;54.23;48.88;;;;;;;8.05;79.93;100263.69;127554;1107;23147;-78
2021/05/01 07:23:47;;;;;;;54.60;49.38;;;;;;;8.08;80.17;100260.75;128010;1101;22386;-77
2021/05/01 07:26:23;;;;;;;55.33;49.23;;;;;;;8.09;80.16;100257.14;128240;1100;22364;-77
2021/05/01 07:28:53;;;;;;;52.90;47.70;;;;;;;8.10;79.93;100253.55;128361;1098;23272;-78
2021/05/01 07:31:32;;;;;;;51.28;46.25;;;;;;;8.06;80.00;100258.27;128305;1099;22341;-77
2021/05/01 07:34:03;;;;;;;101.90;53.57;;;;;;;8.07;80.18;100256.48;128638;1095;22962;-78
2021/05/01 07:37:17;;;;;;;55.90;50.25;;;;;;;8.13;80.29;100261.95;128418;1098;22361;-79
2021/05/01 07:40:01;;;;;;;55.70;50.20;;;;;;;8.16;80.43;100255.53;128358;1099;22608;-78
2021/05/01 07:43:01;;;;;;;50.35;45.45;;;;;;;8.18;80.14;100251.78;128680;1098;22328;-79
2021/05/01 07:45:30;;;;;;;53.70;48.15;;;;;;;8.15;80.12;100246.82;128293;1101;23373;-79
2021/05/01 07:48:04;;;;;;;55.08;48.98;;;;;;;8.19;80.32;100255.23;127995;1101;23208;-79
2021/05/01 07:50:35;;;;;;;47.98;43.33;;;;;;;8.22;80.27;100247.84;128034;1104;22413;-79
2021/05/01 07:53:07;;;;;;;49.55;44.73;;;;;;;8.26;80.33;100253.63;128021;1101;22391;-78
2021/05/01 07:55:37;;;;;;;52.80;47.53;;;;;;;8.25;79.98;100258.06;128032;1101;24495;-77
2021/05/01 07:58:08;;;;;;;52.65;47.55;;;;;;;8.26;80.26;100256.26;128120;1104;22361;-78
2021/05/01 08:00:37;;;;;;;52.53;47.35;;;;;;;8.33;80.46;100259.09;128019;1101;22347;-79
2021/05/01 08:03:10;;;;;;;51.08;46.05;;;;;;;8.41;80.55;100256.56;128740;1101;22360;-78
2021/05/01 08:05:42;;;;;;;46.30;42.03;;;;;;;8.43;80.26;100260.69;128105;1098;24276;-78
2021/05/01 08:08:11;;;;;;;49.00;44.17;;;;;;;8.44;80.24;100267.60;128307;1098;22337;-78
2021/05/01 08:10:41;;;;;;;45.83;41.05;;;;;;;8.47;79.93;100263.84;128323;1098;24797;-77
2021/05/01 08:13:11;;;;;;;50.60;45.20;;;;;;;8.48;80.03;100265.48;128338;1101;22567;-78
2021/05/01 08:15:41;;;;;;;51.75;46.38;;;;;;;8.48;79.83;100274.20;128266;1101;22345;-78
2021/05/01 08:18:13;;;;;;;53.40;47.90;;;;;;;8.52;79.91;100284.42;128253;1101;22345;-77
2021/05/01 08:20:42;;;;;;;56.75;51.20;;;;;;;8.62;80.24;100285.13;128074;1098;23202;-78
2021/05/01 08:23:14;;;;;;;58.60;53.05;;;;;;;8.72;80.03;100291.11;128261;1098;24575;-78
2021/05/01 08:25:43;;;;;;;51.78;46.88;;;;;;;8.79;80.01;100278.13;127998;1104;24042;-77
2021/05/01 08:28:12;;;;;;;55.00;49.43;;;;;;;8.79;79.71;100276.32;128020;1104;22637;-77
2021/05/01 08:30:40;;;;;;;50.55;45.85;;;;;;;8.81;79.45;100279.63;127919;1104;22371;-78
2021/05/01 08:33:10;;;;;;;99.40;59.00;;;;;;;8.82;79.38;100277.82;128038;1104;23923;-78
2021/05/01 08:35:40;;;;;;;51.38;46.50;;;;;;;8.83;79.30;100275.05;128080;1101;22374;-78
2021/05/01 08:38:08;;;;;;;58.68;53.03;;;;;;;8.91;79.42;100277.70;128006;1101;22340;-79
2021/05/01 08:40:38;;;;;;;49.30;44.70;;;;;;;9.01;79.39;100274.94;128303;1103;22363;-78
2021/05/01 08:43:08;;;;;;;46.53;42.25;;;;;;;9.07;79.28;100278.75;128100;1100;22364;-78
2021/05/01 08:45:38;;;;;;;48.60;43.90;;;;;;;9.10;79.19;100276.63;128359;1096;22419;-79
2021/05/01 08:48:07;;;;;;;46.15;41.78;;;;;;;9.13;78.67;100268.40;128370;1098;22327;-78
2021/05/01 08:50:46;;;;;;;52.38;47.48;;;;;;;9.17;78.80;100274.17;128370;1097;23118;-77
2021/05/01 08:53:15;;;;;;;119.48;59.05;;;;;;;9.24;78.83;100280.45;128594;1098;22346;-80
2021/05/01 08:55:47;;;;;;;64.65;58.30;;;;;;;9.31;78.97;100284.09;128334;1100;22436;-79
2021/05/01 08:58:16;;;;;;;45.87;41.77;;;;;;;9.43;78.52;100284.63;128334;1096;24444;-78
2021/05/01 09:00:48;;;;;;;47.93;43.40;;;;;;;9.47;78.18;100279.84;128358;1098;22857;-76
2021/05/01 09:03:19;;;;;;;52.43;47.60;;;;;;;9.51;77.93;100278.53;128364;1099;22854;-76
2021/05/01 09:05:50;;;;;;;;;;;;;;;9.51;77.53;100270.62;128352;1098;22360;-76
2021/05/01 09:08:22;;;;;;;48.48;43.98;;;;;;;9.51;77.87;100268.80;128371;1099;21267;-76
2021/05/01 09:10:54;;;;;;;47.13;42.43;;;;;;;9.62;77.88;100280.84;128330;1096;25034;-75
2021/05/01 09:13:27;;;;;;;41.63;37.83;;;;;;;9.68;77.34;100287.28;128168;1101;22360;-75
2021/05/01 09:16:05;;;;;;;45.28;41.05;;;;;;;9.66;76.92;100293.55;128303;1098;24996;-74
2021/05/01 09:19:03;;;;;;;46.23;41.55;;;;;;;9.68;76.71;100287.28;128275;1101;22365;-76
2021/05/01 09:21:33;;;;;;;57.13;47.60;;;;;;;9.65;76.41;100285.79;127983;1101;22509;-76
2021/05/01 09:24:03;;;;;;;53.88;48.55;;;;;;;9.70;76.44;100282.68;127985;1101;22371;-76
2021/05/01 09:26:42;;;;;;;41.03;37.23;;;;;;;9.75;76.35;100283.00;127550;1107;22369;-76
2021/05/01 09:29:28;;;;;;;39.73;35.93;;;;;;;9.79;76.06;100279.86;128056;1105;22419;-75
2021/05/01 09:32:00;;;;;;;38.15;34.43;;;;;;;9.85;75.86;100294.22;127828;1105;22684;-75
2021/05/01 09:34:47;;;;;;;44.20;40.20;;;;;;;9.92;75.80;100281.19;128229;1105;22361;-74
2021/05/01 09:37:23;;;;;;;41.78;37.68;;;;;;;9.95;75.37;100279.04;127968;1100;24186;-75
2021/05/01 09:39:59;;;;;;;39.90;36.23;;;;;;;9.98;75.23;100272.62;127968;1104;22462;-76
2021/05/01 09:42:30;;;;;;;35.55;32.40;;;;;;;10.05;75.07;100268.32;128005;1104;22834;-75
2021/05/01 09:45:19;;;;;;;37.20;33.83;;;;;;;10.06;74.46;100256.77;127758;1101;22374;-76
2021/05/01 09:47:52;;;;;;;35.35;31.95;;;;;;;10.09;74.28;100265.17;127981;1101;22362;-76
2021/05/01 09:50:26;;;;;;;36.33;32.75;;;;;;;10.14;74.25;100262.87;128003;1103;22397;-76
2021/05/01 09:53:05;;;;;;;40.48;36.53;;;;;;;10.17;73.78;100261.72;128057;1104;22578;-77
2021/05/01 09:56:05;;;;;;;35.60;32.25;;;;;;;10.24;74.11;100260.05;128042;1103;22459;-75
2021/05/01 09:58:55;;;;;;;34.10;31.00;;;;;;;10.29;73.84;100260.39;127837;1104;22358;-76
2021/05/01 10:01:26;;;;;;;28.90;26.23;;;;;;;10.32;73.54;100257.41;127986;1104;22361;-75
2021/05/01 10:04:18;;;;;;;27.65;25.15;;;;;;;10.39;73.29;100260.20;128176;1101;22507;-76
2021/05/01 10:06:56;;;;;;;30.68;27.98;;;;;;;10.45;73.06;100246.33;128245;1098;24450;-77
2021/05/01 10:09:35;;;;;;;29.73;26.93;;;;;;;10.55;72.92;100240.85;128231;1101;22363;-78
2021/05/01 10:12:14;;;;;;;33.73;30.58;;;;;;;10.63;72.62;100234.70;128108;1101;22349;-77
2021/05/01 10:14:48;;;;;;;32.95;29.85;;;;;;;10.81;73.09;100227.38;128088;1101;22357;-77
2021/05/01 10:17:37;;;;;;;37.45;33.65;;;;;;;10.99;72.70;100219.19;128044;1101;24504;-78
2021/05/01 10:20:08;;;;;;;26.28;23.65;;;;;;;11.18;72.10;100229.33;127990;1101;22356;-77
2021/05/01 10:22:42;;;;;;;26.53;24.10;;;;;;;11.26;71.26;100221.36;128047;1104;23120;-78
2021/05/01 10:25:38;;;;;;;28.88;26.18;;;;;;;11.34;70.95;100223.12;127844;1105;22468;-78
2021/05/01 10:28:15;;;;;;;27.83;25.28;;;;;;;11.39;70.14;100231.33;127564;1105;22819;-79
2021/05/01 10:30:54;;;;;;;27.48;24.93;;;;;;;11.40;69.91;100240.12;127583;1104;22380;-78
2021/05/01 10:33:34;;;;;;;25.63;23.30;;;;;;;11.38;69.45;100247.39;127555;1107;22491;-77
2021/05/01 10:36:21;;;;;;;29.80;26.90;;;;;;;11.35;69.01;100247.73;127935;1101;22375;-79
2021/05/01 10:39:06;;;;;;;29.13;26.47;;;;;;;11.24;68.59;100255.08;128074;1101;22446;-79
2021/05/01 10:41:37;;;;;;;29.80;26.95;;;;;;;11.16;68.73;100246.36;128078;1102;22385;-76
2021/05/01 10:44:07;;;;;;;32.20;29.13;;;;;;;11.12;68.77;100256.45;128279;1101;22341;-76
2021/05/01 10:46:42;;;;;;;29.78;27.08;;;;;;;11.14;69.03;100254.47;128221;1101;22343;-75
2021/05/01 10:49:13;;;;;;;29.57;26.97;;;;;;;11.16;68.86;100241.92;127986;1103;22350;-75
2021/05/01 10:51:50;;;;;;;28.70;26.10;;;;;;;11.20;69.12;100221.23;128228;1101;22367;-75
2021/05/01 10:54:26;;;;;;;29.55;26.68;;;;;;;11.16;68.65;100215.48;128204;1101;22351;-76
2021/05/01 10:56:57;;;;;;;27.73;25.13;;;;;;;11.15;68.88;100215.63;128241;1101;22376;-76
2021/05/01 10:59:29;;;;;;;29.33;26.70;;;;;;;11.18;69.09;100224.04;128286;1101;22342;-75
2021/05/01 11:02:00;;;;;;;81.55;30.60;;;;;;;11.18;69.02;100221.39;127977;1101;22414;-76
2021/05/01 11:04:31;;;;;;;27.40;24.97;;;;;;;11.15;68.75;100216.45;128054;1100;22367;-76
2021/05/01 11:07:22;;;;;;;29.53;26.68;;;;;;;11.19;69.20;100223.03;128394;1099;23253;-75
2021/05/01 11:10:05;;;;;;;33.88;30.58;;;;;;;11.28;69.32;100231.75;128302;1095;24462;-75
2021/05/01 11:12:54;;;;;;;30.78;27.83;;;;;;;11.31;68.79;100234.05;128620;1098;23285;-76
2021/05/01 11:15:26;;;;;;;27.70;25.13;;;;;;;11.28;68.59;100224.63;128647;1098;22794;-74
2021/05/01 11:18:07;;;;;;;26.83;24.23;;;;;;;11.27;68.74;100217.70;128310;1098;22318;-75
2021/05/01 11:20:37;;;;;;;27.00;24.38;;;;;;;11.28;68.65;100224.63;128365;1099;22433;-75
2021/05/01 11:23:16;;;;;;;25.63;23.33;;;;;;;11.30;68.49;100229.77;128403;1098;22430;-74
2021/05/01 11:25:45;;;;;;;25.28;22.78;;;;;;;11.34;68.61;100240.81;128396;1099;22430;-73
2021/05/01 11:28:14;;;;;;;26.27;23.87;;;;;;;11.31;68.26;100241.98;128331;1095;22327;-74
2021/05/01 11:30:43;;;;;;;25.48;23.13;;;;;;;11.30;68.30;100258.85;128374;1097;24218;-73